createdAt,value
2023-01-28T00:01:41.003Z,72.89
2023-01-28T00:04:07.616Z,72.70
2023-01-28T00:06:34.180Z,73.08
2023-01-28T00:09:00.844Z,72.88
2023-01-28T00:11:27.359Z,72.95
2023-01-28T00:13:54.595Z,72.88
2023-01-28T00:16:21.714Z,72.61
2023-01-28T00:18:48.728Z,72.68
2023-01-28T00:21:16.328Z,72.27
2023-01-28T00:23:47.621Z,72.07
2023-01-28T00:26:15.382Z,72.02
2023-01-28T00:28:44.412Z,71.90
2023-01-28T00:31:20.120Z,71.92
2023-01-28T00:33:48.373Z,71.99
2023-01-28T00:36:16.017Z,72.18
2023-01-28T00:38:43.002Z,72.74
2023-01-28T00:41:18.422Z,72.35
2023-01-28T00:43:44.935Z,73.28
2023-01-28T00:46:12.839Z,73.39
2023-01-28T00:48:40.996Z,72.87
2023-01-28T00:51:08.662Z,73.14
2023-01-28T00:53:36.210Z,73.10
2023-01-28T00:56:03.801Z,73.08
2023-01-28T00:58:32.813Z,72.55
2023-01-28T01:01:18.364Z,72.96
2023-01-28T01:03:45.582Z,72.65
2023-01-28T01:06:15.532Z,72.49
2023-01-28T01:08:42.142Z,72.52
2023-01-28T01:11:11.140Z,72.55
2023-01-28T01:13:38.524Z,72.69
2023-01-28T01:16:15.996Z,72.33
2023-01-28T01:18:43.003Z,72.51
2023-01-28T01:21:11.983Z,72.34
2023-01-28T01:23:39.098Z,72.58
2023-01-28T01:26:07.019Z,72.95
2023-01-28T01:28:35.088Z,72.98
2023-01-28T01:31:04.206Z,73.10
2023-01-28T01:33:31.717Z,72.84
2023-01-28T01:35:58.883Z,72.92
2023-01-28T01:38:27.495Z,73.23
2023-01-28T01:40:58.404Z,73.05
2023-01-28T01:43:25.588Z,73.51
2023-01-28T01:46:00.561Z,73.12
2023-01-28T01:48:33.798Z,72.84
2023-01-28T01:51:13.012Z,73.36
2023-01-28T01:53:43.373Z,73.28
2023-01-28T01:56:14.125Z,73.20
2023-01-28T01:58:44.076Z,73.51
2023-01-28T02:01:11.703Z,73.79
2023-01-28T02:04:00.916Z,73.34
2023-01-28T02:06:28.837Z,73.89
2023-01-28T02:08:56.185Z,73.80
2023-01-28T02:11:27.128Z,73.39
2023-01-28T02:13:58.050Z,73.95
2023-01-28T02:16:27.950Z,74.11
2023-01-28T02:18:54.691Z,74.16
2023-01-28T02:21:52.954Z,73.06
2023-01-28T02:24:42.227Z,73.06
2023-01-28T02:27:20.622Z,72.86
2023-01-28T02:30:03.286Z,73.18
2023-01-28T02:32:35.358Z,73.98
2023-01-28T02:35:18.349Z,73.26
2023-01-28T02:37:49.693Z,73.25
2023-01-28T02:40:28.057Z,72.63
2023-01-28T02:42:59.096Z,73.53
2023-01-28T02:45:32.907Z,72.03
2023-01-28T02:47:59.610Z,73.90
2023-01-28T02:50:39.192Z,72.47
2023-01-28T02:53:28.559Z,73.03
2023-01-28T02:56:09.801Z,73.01
2023-01-28T02:58:37.258Z,73.78
2023-01-28T03:01:15.965Z,72.71
2023-01-28T03:04:03.933Z,72.72
2023-01-28T03:06:36.529Z,72.37
2023-01-28T03:09:07.511Z,72.35
2023-01-28T03:11:39.014Z,72.75
2023-01-28T03:14:09.736Z,73.06
2023-01-28T03:16:36.434Z,73.51
2023-01-28T03:19:03.051Z,73.56
2023-01-28T03:21:36.915Z,72.74
2023-01-28T03:24:24.551Z,72.56
2023-01-28T03:27:02.303Z,72.72
2023-01-28T03:29:31.881Z,73.61
2023-01-28T03:32:01.388Z,73.54
2023-01-28T03:34:28.407Z,73.86
2023-01-28T03:36:56.577Z,73.56
2023-01-28T03:39:31.746Z,73.33
2023-01-28T03:42:13.305Z,72.08
2023-01-28T03:44:50.581Z,73.23
2023-01-28T03:47:18.968Z,73.31
2023-01-28T03:49:48.010Z,72.98
2023-01-28T03:52:23.495Z,72.37
2023-01-28T03:54:50.265Z,73.36
2023-01-28T03:57:18.472Z,73.22
2023-01-28T03:59:45.163Z,73.40
2023-01-28T04:02:12.892Z,73.35
2023-01-28T04:04:40.304Z,73.39
2023-01-28T04:07:08.993Z,73.45
2023-01-28T04:10:01.675Z,73.38
2023-01-28T04:12:45.474Z,73.52
2023-01-28T04:15:15.225Z,73.58
2023-01-28T04:17:47.701Z,73.19
2023-01-28T04:20:21.072Z,73.03
2023-01-28T04:22:47.997Z,72.92
2023-01-28T04:25:16.233Z,72.89
2023-01-28T04:27:43.673Z,72.85
2023-01-28T04:30:16.777Z,73.18
2023-01-28T04:32:49.923Z,73.24
2023-01-28T04:35:34.993Z,73.19
2023-01-28T04:38:24.685Z,73.21
2023-01-28T04:41:01.755Z,73.29
2023-01-28T04:43:31.959Z,73.41
2023-01-28T04:46:18.625Z,73.42
2023-01-28T04:48:55.330Z,73.59
2023-01-28T04:51:51.440Z,73.67
2023-01-28T04:54:28.706Z,73.14
2023-01-28T04:56:58.767Z,73.08
2023-01-28T04:59:26.452Z,73.12
2023-01-28T05:01:53.087Z,73.03
2023-01-28T05:04:20.755Z,73.13
2023-01-28T05:06:47.399Z,73.12
2023-01-28T05:09:16.919Z,73.25
2023-01-28T05:11:44.034Z,72.79
2023-01-28T05:14:10.710Z,72.24
2023-01-28T05:16:44.533Z,72.21
2023-01-28T05:19:11.788Z,72.36
2023-01-28T05:21:41.232Z,72.72
2023-01-28T05:24:42.997Z,72.71
2023-01-28T05:27:10.160Z,72.78
2023-01-28T05:29:36.835Z,72.91
2023-01-28T05:32:03.791Z,72.87
2023-01-28T05:34:31.254Z,73.07
2023-01-28T05:37:01.163Z,72.94
2023-01-28T05:39:32.593Z,72.90
2023-01-28T05:41:59.536Z,73.20
2023-01-28T05:44:26.295Z,73.53
2023-01-28T05:46:59.063Z,73.42
2023-01-28T05:49:49.669Z,73.71
2023-01-28T05:52:34.423Z,73.72
2023-01-28T05:55:01.427Z,73.72
2023-01-28T05:57:28.145Z,73.65
2023-01-28T05:59:54.851Z,73.64
2023-01-28T06:02:21.765Z,73.64
2023-01-28T06:04:50.768Z,73.93
2023-01-28T06:07:17.456Z,73.69
2023-01-28T06:09:43.991Z,73.22
2023-01-28T06:12:10.768Z,73.06
2023-01-28T06:14:50.872Z,72.74
2023-01-28T06:17:35.287Z,72.96
2023-01-28T06:20:08.055Z,72.94
2023-01-28T06:22:36.819Z,73.25
2023-01-28T06:25:03.601Z,73.07
2023-01-28T06:27:32.372Z,73.36
2023-01-28T06:29:58.914Z,73.11
2023-01-28T06:32:25.445Z,73.06
2023-01-28T06:34:51.978Z,72.85
2023-01-28T06:37:18.532Z,72.80
2023-01-28T06:39:47.963Z,73.13
2023-01-28T06:42:14.557Z,73.00
2023-01-28T06:44:41.801Z,73.33
2023-01-28T06:47:08.311Z,73.19
2023-01-28T06:49:34.808Z,73.51
2023-01-28T06:52:01.435Z,73.65
2023-01-28T06:54:27.896Z,73.62
2023-01-28T06:56:54.645Z,73.39
2023-01-28T06:59:21.566Z,73.58
2023-01-28T07:01:48.116Z,73.63
2023-01-28T07:04:14.689Z,73.80
2023-01-28T07:06:41.165Z,73.85
2023-01-28T07:09:07.826Z,73.74
2023-01-28T07:11:34.469Z,73.45
2023-01-28T07:14:01.148Z,73.06
2023-01-28T07:16:27.677Z,72.88
2023-01-28T07:18:54.370Z,73.04
2023-01-28T07:21:20.866Z,73.69
2023-01-28T07:23:47.357Z,73.52
2023-01-28T07:26:14.344Z,73.43
2023-01-28T07:28:41.065Z,74.03
2023-01-28T07:31:07.639Z,73.91
2023-01-28T07:33:34.327Z,73.73
2023-01-28T07:36:00.886Z,73.68
2023-01-28T07:38:27.444Z,73.75
2023-01-28T07:40:53.938Z,74.30
2023-01-28T07:43:20.448Z,73.92
2023-01-28T07:45:49.476Z,74.19
2023-01-28T07:48:16.110Z,74.07
2023-01-28T07:50:42.729Z,73.90
2023-01-28T07:53:11.659Z,73.96
2023-01-28T07:55:38.993Z,73.75
2023-01-28T07:58:07.493Z,73.44
2023-01-28T08:00:36.495Z,73.26
2023-01-28T08:03:07.210Z,74.10
2023-01-28T08:05:44.281Z,73.76
2023-01-28T08:08:11.556Z,73.26
2023-01-28T08:10:38.765Z,72.73
2023-01-28T08:13:06.297Z,72.69
2023-01-28T08:15:35.086Z,72.76
2023-01-28T08:18:01.918Z,72.83
2023-01-28T08:20:31.604Z,72.80
2023-01-28T08:23:12.744Z,73.02
2023-01-28T08:25:40.127Z,73.34
2023-01-28T08:28:07.763Z,73.42
2023-01-28T08:30:34.691Z,73.46
2023-01-28T08:33:01.557Z,73.60
2023-01-28T08:35:28.896Z,73.27
2023-01-28T08:37:56.856Z,73.57
2023-01-28T08:40:23.417Z,73.48
2023-01-28T08:42:51.662Z,73.61
2023-01-28T08:45:19.510Z,73.44
2023-01-28T08:47:55.980Z,73.26
2023-01-28T08:50:24.250Z,74.01
2023-01-28T08:52:59.939Z,73.31
2023-01-28T08:55:28.332Z,74.72
2023-01-28T08:57:57.430Z,74.45
2023-01-28T09:00:25.375Z,74.14
2023-01-28T09:02:53.010Z,74.27
2023-01-28T09:05:20.538Z,74.42
2023-01-28T09:07:47.455Z,74.77
2023-01-28T09:10:14.447Z,74.22
2023-01-28T09:12:41.314Z,74.07
2023-01-28T09:15:08.811Z,74.47
2023-01-28T09:17:35.313Z,74.49
2023-01-28T09:20:01.855Z,73.23
2023-01-28T09:22:28.335Z,72.65
2023-01-28T09:24:54.932Z,73.05
2023-01-28T09:27:21.447Z,72.91
2023-01-28T09:29:48.002Z,72.29
2023-01-28T09:32:14.532Z,72.79
2023-01-28T09:34:41.062Z,73.39
2023-01-28T09:37:07.648Z,74.19
2023-01-28T09:39:34.228Z,74.62
2023-01-28T09:42:03.674Z,75.19
2023-01-28T09:44:52.743Z,72.89
2023-01-28T09:47:33.935Z,71.37
2023-01-28T09:50:05.962Z,74.77
2023-01-28T09:52:36.200Z,74.80
2023-01-28T09:55:17.544Z,71.34
2023-01-28T09:57:50.571Z,75.58
2023-01-28T10:00:23.396Z,76.24
2023-01-28T10:03:33.675Z,73.33
2023-01-28T10:06:17.834Z,72.52
2023-01-28T10:09:15.897Z,71.71
2023-01-28T10:12:09.933Z,71.85
2023-01-28T10:14:54.551Z,72.35
2023-01-28T10:17:32.391Z,71.16
2023-01-28T10:20:05.572Z,73.85
2023-01-28T10:22:43.225Z,73.67
2023-01-28T10:25:20.492Z,70.68
2023-01-28T10:27:48.565Z,75.19
2023-01-28T10:30:31.067Z,67.85
2023-01-28T10:33:04.250Z,70.99
2023-01-28T10:35:42.978Z,72.60
2023-01-28T10:38:20.198Z,74.32
2023-01-28T10:40:47.168Z,74.64
2023-01-28T10:43:25.883Z,70.71
2023-01-28T10:46:15.813Z,66.92
2023-01-28T10:49:02.448Z,71.23
2023-01-28T10:51:37.136Z,70.57
2023-01-28T10:54:17.919Z,71.50
2023-01-28T10:56:44.902Z,72.39
2023-01-28T10:59:27.911Z,68.80
2023-01-28T11:02:01.190Z,70.89
2023-01-28T11:04:33.952Z,73.09
2023-01-28T11:07:03.830Z,72.87
2023-01-28T11:09:33.236Z,72.57
2023-01-28T11:12:24.703Z,71.46
2023-01-28T11:14:56.815Z,69.41
2023-01-28T11:17:26.450Z,70.61
2023-01-28T11:19:55.047Z,69.88
2023-01-28T11:22:45.200Z,67.04
2023-01-28T11:25:33.790Z,68.34
2023-01-28T11:28:03.553Z,68.86
2023-01-28T11:30:34.346Z,68.26
2023-01-28T11:33:15.191Z,69.61
2023-01-28T11:35:41.787Z,69.79
2023-01-28T11:38:19.444Z,69.20
2023-01-28T11:40:54.112Z,70.17
2023-01-28T11:43:23.230Z,67.88
2023-01-28T11:46:08.907Z,66.60
2023-01-28T11:49:10.928Z,66.58
2023-01-28T11:51:53.507Z,67.38
2023-01-28T11:54:37.602Z,66.23
2023-01-28T11:57:20.366Z,67.17
2023-01-28T12:00:12.350Z,67.27
2023-01-28T12:02:51.825Z,66.90
2023-01-28T12:05:46.220Z,68.43
2023-01-28T12:08:29.376Z,65.88
2023-01-28T12:11:13.557Z,67.16
2023-01-28T12:14:05.476Z,66.82
2023-01-28T12:17:02.275Z,65.18
2023-01-28T12:19:54.698Z,66.85
2023-01-28T12:22:41.744Z,68.90
2023-01-28T12:25:24.282Z,67.06
2023-01-28T12:27:52.621Z,67.21
2023-01-28T12:30:33.551Z,68.95
2023-01-28T12:33:45.035Z,70.84
2023-01-28T12:36:40.887Z,68.66
2023-01-28T12:39:35.784Z,65.47
2023-01-28T12:42:22.397Z,70.96
2023-01-28T12:44:57.261Z,70.15
2023-01-28T12:47:29.348Z,67.91
2023-01-28T12:50:21.530Z,65.97
2023-01-28T12:52:57.258Z,69.98
2023-01-28T12:55:38.593Z,65.79
2023-01-28T12:58:12.462Z,66.56
2023-01-28T13:00:48.419Z,66.29
2023-01-28T13:03:23.210Z,65.77
2023-01-28T13:05:59.741Z,64.70
2023-01-28T13:08:28.630Z,63.48
2023-01-28T13:10:57.686Z,64.71
2023-01-28T13:13:34.487Z,66.22
2023-01-28T13:16:02.608Z,66.14
2023-01-28T13:18:41.340Z,67.58
2023-01-28T13:21:12.512Z,66.38
2023-01-28T13:23:38.968Z,67.23
2023-01-28T13:26:23.704Z,67.08
2023-01-28T13:28:53.203Z,66.21
2023-01-28T13:31:22.964Z,67.51
2023-01-28T13:33:55.436Z,66.29
2023-01-28T13:36:35.135Z,66.41
2023-01-28T13:39:05.027Z,64.01
2023-01-28T13:41:45.436Z,64.00
2023-01-28T13:44:27.259Z,60.80
2023-01-28T13:47:00.312Z,63.42
2023-01-28T13:49:40.964Z,63.84
2023-01-28T13:52:10.207Z,64.22
2023-01-28T13:54:40.826Z,65.75
2023-01-28T13:57:40.204Z,65.56
2023-01-28T14:00:20.873Z,68.01
2023-01-28T14:03:22.189Z,67.29
2023-01-28T14:06:10.127Z,67.12
2023-01-28T14:08:39.460Z,64.63
2023-01-28T14:11:25.045Z,64.65
2023-01-28T14:14:09.872Z,64.04
2023-01-28T14:16:42.592Z,64.03
2023-01-28T14:21:40.812Z,65.03
2023-01-28T14:24:15.855Z,65.37
2023-01-28T14:27:09.231Z,66.79
2023-01-28T14:30:14.136Z,65.88
2023-01-28T14:32:47.265Z,65.43
2023-01-28T14:35:19.775Z,65.92
2023-01-28T14:37:46.746Z,66.06
2023-01-28T14:40:16.366Z,66.77
2023-01-28T14:42:50.493Z,66.46
2023-01-28T14:45:35.523Z,67.14
2023-01-28T14:48:26.372Z,68.36
2023-01-28T14:51:07.167Z,68.53
2023-01-28T14:54:00.735Z,68.27
2023-01-28T14:57:15.158Z,68.52
2023-01-28T14:59:54.807Z,68.21
2023-01-28T15:02:26.526Z,67.18
2023-01-28T15:04:53.772Z,68.59
2023-01-28T15:07:25.314Z,67.98
2023-01-28T15:10:07.369Z,68.65
2023-01-28T15:12:41.042Z,68.51
2023-01-28T15:15:18.164Z,68.19
2023-01-28T15:17:47.463Z,69.11
2023-01-28T15:20:20.633Z,68.25
2023-01-28T15:22:47.344Z,70.12
2023-01-28T15:25:22.811Z,68.20
2023-01-28T15:27:51.471Z,70.32
2023-01-28T15:30:23.224Z,69.65
2023-01-28T15:33:20.927Z,68.66
2023-01-28T15:35:48.081Z,69.86
2023-01-28T15:38:14.640Z,71.26
2023-01-28T15:40:43.389Z,70.61
2023-01-28T15:43:20.484Z,68.96
2023-01-28T15:45:48.675Z,70.96
2023-01-28T15:48:15.684Z,69.48
2023-01-28T15:50:44.279Z,71.00
2023-01-28T15:53:13.001Z,70.95
2023-01-28T15:55:44.455Z,69.89
2023-01-28T15:58:20.076Z,69.12
2023-01-28T16:00:48.512Z,71.07
2023-01-28T16:03:20.606Z,70.12
2023-01-28T16:06:21.309Z,68.36
2023-01-28T16:08:58.147Z,69.36
2023-01-28T16:11:28.575Z,71.26
2023-01-28T16:13:55.826Z,71.35
2023-01-28T16:16:27.703Z,69.50
2023-01-28T16:18:54.832Z,71.21
2023-01-28T16:21:30.162Z,69.16
2023-01-28T16:24:06.090Z,69.40
2023-01-28T16:26:35.213Z,71.00
2023-01-28T16:29:14.716Z,68.85
2023-01-28T16:31:41.426Z,71.29
2023-01-28T16:34:10.908Z,70.96
2023-01-28T16:36:37.589Z,71.33
2023-01-28T16:39:04.434Z,71.33
2023-01-28T16:41:35.216Z,70.57
2023-01-28T16:44:01.809Z,71.68
2023-01-28T16:46:28.420Z,71.50
2023-01-28T16:48:54.996Z,71.35
2023-01-28T16:51:21.597Z,71.39
2023-01-28T16:53:49.816Z,71.12
2023-01-28T16:56:30.432Z,71.30
2023-01-28T16:59:05.158Z,71.30
2023-01-28T17:01:31.701Z,71.48
2023-01-28T17:03:58.264Z,71.11
2023-01-28T17:06:25.024Z,70.95
2023-01-28T17:08:51.554Z,71.11
2023-01-28T17:11:18.114Z,70.99
2023-01-28T17:13:44.850Z,71.02
2023-01-28T17:16:11.444Z,71.30
2023-01-28T17:18:38.202Z,71.27
2023-01-28T17:21:05.802Z,71.45
2023-01-28T17:23:33.072Z,71.28
2023-01-28T17:26:07.869Z,69.88
2023-01-28T17:28:35.389Z,71.76
2023-01-28T17:31:13.107Z,70.09
2023-01-28T17:33:40.791Z,71.57
2023-01-28T17:36:07.787Z,71.90
2023-01-28T17:38:34.378Z,71.89
2023-01-28T17:41:09.115Z,69.64
2023-01-28T17:43:35.634Z,71.75
2023-01-28T17:46:11.026Z,69.68
2023-01-28T17:48:37.737Z,71.88
2023-01-28T17:51:04.421Z,72.07
2023-01-28T17:53:31.045Z,71.83
2023-01-28T17:55:57.887Z,71.77
2023-01-28T17:58:24.384Z,71.87
2023-01-28T18:00:50.896Z,71.68
2023-01-28T18:03:17.576Z,71.61
2023-01-28T18:05:44.150Z,71.94
2023-01-28T18:08:10.689Z,71.89
2023-01-28T18:10:37.157Z,71.64
2023-01-28T18:13:03.842Z,71.82
2023-01-28T18:15:30.383Z,71.90
2023-01-28T18:17:56.886Z,71.94
2023-01-28T18:20:23.600Z,71.95
2023-01-28T18:22:50.143Z,71.96
2023-01-28T18:25:18.716Z,71.97
2023-01-28T18:27:45.931Z,72.05
2023-01-28T18:30:12.586Z,72.20
2023-01-28T18:32:39.069Z,72.14
2023-01-28T18:35:06.121Z,72.13
2023-01-28T18:37:32.815Z,72.21
2023-01-28T18:39:59.381Z,72.19
2023-01-28T18:42:25.894Z,72.41
2023-01-28T18:44:52.474Z,72.34
2023-01-28T18:47:19.126Z,72.24
2023-01-28T18:49:45.767Z,72.18
2023-01-28T18:52:12.268Z,72.23
2023-01-28T18:54:38.817Z,72.35
2023-01-28T18:57:05.651Z,72.48
2023-01-28T18:59:32.179Z,72.46
2023-01-28T19:01:58.820Z,72.41
2023-01-28T19:04:25.696Z,72.49
2023-01-28T19:06:55.912Z,71.18
2023-01-28T19:09:22.476Z,72.37
2023-01-28T19:11:49.165Z,72.52
2023-01-28T19:14:16.514Z,72.42
2023-01-28T19:16:43.843Z,72.33
2023-01-28T19:19:10.488Z,72.20
2023-01-28T19:21:36.967Z,72.38
2023-01-28T19:24:06.358Z,71.93
2023-01-28T19:26:33.373Z,72.35
2023-01-28T19:28:59.860Z,72.34
2023-01-28T19:31:27.187Z,72.35
2023-01-28T19:34:01.478Z,70.99
2023-01-28T19:36:30.281Z,72.04
2023-01-28T19:38:58.141Z,72.13
2023-01-28T19:41:24.926Z,72.00
2023-01-28T19:43:51.460Z,72.08
2023-01-28T19:46:18.177Z,72.61
2023-01-28T19:48:45.144Z,72.58
2023-01-28T19:51:13.710Z,72.38
2023-01-28T19:53:41.386Z,72.63
2023-01-28T19:56:12.118Z,71.90
2023-01-28T19:58:41.847Z,72.12
2023-01-28T20:01:16.735Z,70.82
2023-01-28T20:03:44.648Z,72.89
2023-01-28T20:06:14.103Z,72.43
2023-01-28T20:08:40.599Z,72.72
2023-01-28T20:11:14.913Z,70.86
2023-01-28T20:13:43.727Z,71.88
2023-01-28T20:16:16.503Z,70.65
2023-01-28T20:18:43.372Z,72.33
2023-01-28T20:21:09.954Z,72.19
2023-01-28T20:23:36.529Z,72.54
2023-01-28T20:26:03.110Z,72.66
2023-01-28T20:28:30.204Z,72.78
2023-01-28T20:30:57.132Z,72.54
2023-01-28T20:33:24.313Z,72.60
2023-01-28T20:35:50.979Z,72.66
2023-01-28T20:38:17.465Z,72.62
2023-01-28T20:40:44.012Z,72.54
2023-01-28T20:43:10.651Z,72.41
2023-01-28T20:45:37.334Z,72.31
2023-01-28T20:48:03.975Z,72.18
2023-01-28T20:50:30.525Z,72.24
2023-01-28T20:52:57.034Z,72.47
2023-01-28T20:55:23.608Z,72.53
2023-01-28T20:57:52.223Z,72.06
2023-01-28T21:00:19.688Z,72.58
2023-01-28T21:02:46.798Z,72.70
2023-01-28T21:05:13.753Z,72.81
2023-01-28T21:07:40.790Z,72.58
2023-01-28T21:10:08.268Z,72.64
2023-01-28T21:12:35.009Z,72.73
2023-01-28T21:15:01.634Z,72.67
2023-01-28T21:17:28.168Z,72.67
2023-01-28T21:19:54.965Z,72.46
2023-01-28T21:22:21.559Z,72.46
2023-01-28T21:24:48.272Z,72.76
2023-01-28T21:27:15.003Z,72.53
2023-01-28T21:29:41.639Z,72.12
2023-01-28T21:32:08.190Z,72.28
2023-01-28T21:34:34.741Z,72.33
2023-01-28T21:37:01.312Z,72.18
2023-01-28T21:39:27.835Z,72.21
2023-01-28T21:41:54.578Z,72.11
2023-01-28T21:44:21.455Z,72.24
2023-01-28T21:46:48.203Z,72.05
2023-01-28T21:49:14.863Z,72.14
2023-01-28T21:51:41.787Z,72.12
2023-01-28T21:54:13.559Z,71.48
2023-01-28T21:56:42.326Z,71.33
2023-01-28T21:59:10.163Z,71.28
2023-01-28T22:01:36.744Z,71.75
2023-01-28T22:04:03.865Z,71.79
2023-01-28T22:06:30.540Z,71.62
2023-01-28T22:08:57.101Z,71.78
2023-01-28T22:11:23.854Z,71.60
2023-01-28T22:13:50.310Z,71.75
2023-01-28T22:16:17.261Z,71.61
2023-01-28T22:18:43.905Z,71.64
2023-01-28T22:21:11.732Z,71.39
2023-01-28T22:23:38.609Z,71.92
2023-01-28T22:26:05.378Z,72.06
2023-01-28T22:28:32.031Z,72.22
2023-01-28T22:31:07.032Z,70.62
2023-01-28T22:33:33.879Z,72.23
2023-01-28T22:36:00.626Z,72.45
2023-01-28T22:38:27.398Z,72.45
2023-01-28T22:40:53.864Z,72.41
2023-01-28T22:43:20.468Z,72.65
2023-01-28T22:45:46.946Z,72.69
2023-01-28T22:48:13.473Z,72.57
2023-01-28T22:50:39.925Z,72.28
2023-01-28T22:53:06.378Z,71.95
2023-01-28T22:55:33.273Z,72.37
2023-01-28T22:58:02.356Z,72.57
2023-01-28T23:00:28.821Z,72.57
2023-01-28T23:02:55.339Z,72.77
2023-01-28T23:05:21.902Z,72.42
2023-01-28T23:07:48.506Z,72.33
2023-01-28T23:10:15.797Z,72.43
2023-01-28T23:12:42.429Z,72.42
2023-01-28T23:15:10.135Z,72.09
2023-01-28T23:17:36.634Z,72.02
2023-01-28T23:20:03.836Z,72.17
2023-01-28T23:22:32.514Z,72.19
2023-01-28T23:24:59.051Z,72.24
2023-01-28T23:27:26.052Z,72.00
2023-01-28T23:29:52.652Z,71.72
2023-01-28T23:32:20.832Z,71.82
2023-01-28T23:34:47.316Z,72.31
2023-01-28T23:37:13.991Z,72.45
2023-01-28T23:39:41.179Z,72.49
2023-01-28T23:42:16.438Z,70.86
2023-01-28T23:44:43.383Z,72.45
2023-01-28T23:47:10.117Z,72.19
2023-01-28T23:49:37.000Z,72.37
2023-01-28T23:52:04.865Z,72.35
2023-01-28T23:54:31.923Z,72.48
2023-01-28T23:56:59.019Z,72.31
2023-01-28T23:59:25.661Z,72.35
